createdAt,value
2022-09-12T03:39:51.523Z,4.25
2022-09-12T03:45:56.812Z,3.12
2022-09-12T03:48:59.744Z,3.45
2022-09-12T03:52:02.530Z,3.30
2022-09-12T03:55:06.090Z,3.50
2022-09-12T03:58:08.826Z,3.35
2022-09-12T04:01:15.045Z,2.90
2022-09-12T04:04:17.864Z,2.78
2022-09-12T04:07:20.457Z,3.25
2022-09-12T04:10:27.655Z,2.97
2022-09-12T04:16:32.972Z,2.97
2022-09-12T04:22:38.508Z,2.92
2022-09-12T04:25:40.983Z,3.15
2022-09-12T04:28:44.512Z,3.12
2022-09-12T04:31:47.333Z,2.97
2022-09-12T04:34:50.231Z,3.10
2022-09-12T04:37:52.813Z,2.72
2022-09-12T04:40:57.096Z,3.12
2022-09-12T04:44:02.452Z,2.47
2022-09-12T04:47:05.506Z,3.00
2022-09-12T04:50:08.438Z,2.60
2022-09-12T04:53:11.360Z,2.37
2022-09-12T04:56:13.922Z,2.97
2022-09-12T04:59:18.514Z,2.62
2022-09-12T05:02:21.223Z,3.00
2022-09-12T05:05:23.967Z,2.83
2022-09-12T05:08:26.547Z,3.25
2022-09-12T05:11:53.112Z,2.60
2022-09-12T05:14:55.129Z,2.95
2022-09-12T05:17:57.894Z,3.28
2022-09-12T05:21:02.180Z,2.70
2022-09-12T05:24:06.405Z,2.67
2022-09-12T05:27:09.494Z,2.47
2022-09-12T05:30:12.446Z,2.50
2022-09-12T05:33:15.641Z,2.08
2022-09-12T05:36:24.410Z,2.45
2022-09-12T05:39:27.143Z,2.35
2022-09-12T05:42:30.364Z,2.40
2022-09-12T05:45:33.114Z,2.97
2022-09-12T05:48:37.180Z,2.83
2022-09-12T05:51:43.268Z,2.78
2022-09-12T05:54:47.520Z,2.97
2022-09-12T05:57:50.579Z,2.85
2022-09-12T06:00:53.687Z,3.12
2022-09-12T06:04:00.676Z,3.37
2022-09-12T06:07:03.233Z,3.28
2022-09-12T06:10:06.376Z,3.05
2022-09-12T06:13:08.859Z,3.50
2022-09-12T06:16:21.587Z,3.30
2022-09-12T06:19:25.358Z,3.72
2022-09-12T06:22:28.208Z,3.42
2022-09-12T06:25:30.724Z,3.00
2022-09-12T06:28:36.645Z,3.00
2022-09-12T06:31:41.445Z,3.17
2022-09-12T06:34:48.413Z,3.50
2022-09-12T06:37:51.030Z,3.05
2022-09-12T06:40:53.868Z,3.12
2022-09-12T06:43:57.021Z,3.12
2022-09-12T06:46:59.941Z,3.53
2022-09-12T06:50:02.481Z,3.40
2022-09-12T06:53:05.357Z,3.37
2022-09-12T06:56:12.078Z,3.10
2022-09-12T06:59:14.910Z,3.35
2022-09-12T07:02:17.553Z,3.30
2022-09-12T07:05:20.344Z,2.87
2022-09-12T07:08:23.126Z,3.50
2022-09-12T07:14:29.013Z,3.40
2022-09-12T07:17:31.796Z,3.08
2022-09-12T07:20:34.547Z,2.90
2022-09-12T07:26:41.619Z,3.35
2022-09-12T07:29:47.352Z,2.85
2022-09-12T07:32:54.072Z,2.87
2022-09-12T07:36:03.836Z,2.83
2022-09-12T07:39:06.399Z,2.70
2022-09-12T07:42:09.280Z,2.20
2022-09-12T07:45:12.933Z,2.62
2022-09-12T07:48:16.387Z,2.40
2022-09-12T07:51:19.584Z,2.30
2022-09-12T07:54:22.944Z,2.67
2022-09-12T08:00:35.731Z,2.40
2022-09-12T08:03:39.620Z,2.40
2022-09-12T08:06:42.139Z,2.33
2022-09-12T08:09:45.014Z,2.22
2022-09-12T08:12:47.598Z,2.60
2022-09-12T08:15:50.405Z,2.70
2022-09-12T08:18:53.400Z,2.67
2022-09-12T08:24:58.698Z,2.42
2022-09-12T08:31:10.545Z,3.67
2022-09-12T08:34:13.504Z,2.83
2022-09-12T08:37:16.017Z,2.08
2022-09-12T08:43:59.553Z,2.40
2022-09-12T08:47:17.323Z,2.10
2022-09-12T08:50:22.445Z,1.60
2022-09-12T08:53:30.218Z,2.42
2022-09-12T08:56:38.485Z,2.08
2022-09-12T08:59:48.261Z,2.08
2022-09-12T09:03:44.263Z,1.80
2022-09-12T09:07:14.772Z,1.85
2022-09-12T09:10:30.614Z,1.75
2022-09-12T09:14:01.908Z,1.98
2022-09-12T09:17:20.328Z,2.10
2022-09-12T09:20:39.282Z,1.50
2022-09-12T09:23:46.976Z,1.90
2022-09-12T09:27:00.279Z,1.90
2022-09-12T09:30:03.849Z,1.50
2022-09-12T09:33:15.225Z,1.40
2022-09-12T09:36:59.865Z,1.45
2022-09-12T09:40:23.218Z,1.27
2022-09-12T09:46:32.413Z,1.25
2022-09-12T09:49:36.228Z,1.20
2022-09-12T09:52:39.958Z,1.40
2022-09-12T09:55:43.936Z,1.33
2022-09-12T09:58:46.891Z,1.25
2022-09-12T10:01:53.808Z,1.50
2022-09-12T10:04:58.811Z,1.25
2022-09-12T10:08:03.296Z,1.20
2022-09-12T10:11:30.320Z,1.73
2022-09-12T10:14:36.847Z,1.15
2022-09-12T10:17:46.565Z,1.10
2022-09-12T10:20:49.355Z,1.08
2022-09-12T10:24:28.743Z,1.55
2022-09-12T10:27:33.174Z,1.12
2022-09-12T10:30:36.282Z,1.23
2022-09-12T10:36:47.484Z,1.00
2022-09-12T10:39:54.527Z,1.17
2022-09-12T10:42:59.672Z,1.00
2022-09-12T10:46:14.706Z,1.10
2022-09-12T10:49:40.037Z,1.10
2022-09-12T10:52:42.640Z,1.30
2022-09-12T10:56:04.603Z,1.20
2022-09-12T10:59:26.607Z,1.27
2022-09-12T11:02:33.324Z,1.30
2022-09-12T11:05:51.708Z,1.10
2022-09-12T11:09:06.003Z,1.10
2022-09-12T11:12:18.735Z,1.10
2022-09-12T11:15:27.552Z,1.08
2022-09-12T11:19:04.117Z,1.10
2022-09-12T11:22:22.312Z,1.10
2022-09-12T11:26:03.320Z,1.15
2022-09-12T11:29:28.950Z,1.10
2022-09-12T11:32:43.842Z,0.98
2022-09-12T11:35:55.518Z,1.17
2022-09-12T11:39:03.755Z,1.02
2022-09-12T11:42:15.593Z,1.05
2022-09-12T11:45:18.198Z,0.90
2022-09-12T11:51:49.547Z,0.90
2022-09-12T11:55:12.875Z,1.20
2022-09-12T11:58:20.175Z,1.10
2022-09-12T12:01:42.908Z,1.05
2022-09-12T12:05:03.796Z,1.17
2022-09-12T12:08:07.191Z,1.00
2022-09-12T12:11:12.455Z,0.90
2022-09-12T12:14:22.970Z,1.23
2022-09-12T12:17:27.291Z,1.40
2022-09-12T12:20:29.854Z,1.20
2022-09-12T12:23:35.295Z,1.40
2022-09-12T12:26:40.681Z,1.30
2022-09-12T12:29:45.343Z,1.20
2022-09-12T12:32:47.833Z,1.20
2022-09-12T12:36:09.694Z,1.08
2022-09-12T12:39:33.941Z,1.17
2022-09-12T12:42:36.740Z,1.25
2022-09-12T12:49:00.324Z,0.98
2022-09-12T12:52:03.007Z,1.37
2022-09-12T12:55:06.228Z,0.93
2022-09-12T12:58:37.623Z,1.05
2022-09-12T13:01:51.533Z,0.75
2022-09-12T13:04:59.894Z,0.60
2022-09-12T13:08:10.114Z,0.90
2022-09-12T13:11:55.048Z,0.98
2022-09-12T13:15:00.276Z,1.17
2022-09-12T13:18:14.590Z,0.80
2022-09-12T13:21:21.733Z,1.23
2022-09-12T13:24:24.414Z,1.10
2022-09-12T13:27:27.284Z,0.85
2022-09-12T13:30:39.371Z,0.85
2022-09-12T13:33:54.186Z,0.88
2022-09-12T13:37:17.966Z,0.80
2022-09-12T13:40:26.873Z,1.33
2022-09-12T13:43:39.675Z,0.85
2022-09-12T13:46:42.679Z,0.90
2022-09-12T13:49:46.616Z,0.80
2022-09-12T13:52:58.997Z,0.75
2022-09-12T13:59:12.839Z,1.02
2022-09-12T14:02:23.471Z,0.60
2022-09-12T14:05:26.620Z,0.80
2022-09-12T14:08:30.304Z,0.70
2022-09-12T14:11:33.935Z,0.50
2022-09-12T14:14:42.145Z,0.60
2022-09-12T14:17:51.863Z,0.57
2022-09-12T14:20:57.445Z,0.80
2022-09-12T14:24:01.344Z,0.90
2022-09-12T14:27:04.994Z,0.60
2022-09-12T14:30:32.876Z,0.60
2022-09-12T14:33:54.218Z,0.70
2022-09-12T14:36:58.514Z,0.68
2022-09-12T14:40:01.284Z,0.60
2022-09-12T14:43:04.332Z,1.10
2022-09-12T14:46:24.216Z,0.50
2022-09-12T14:49:36.675Z,0.47
2022-09-12T14:55:47.407Z,0.45
2022-09-12T14:58:50.544Z,0.60
2022-09-12T15:02:21.400Z,0.60
2022-09-12T15:05:26.516Z,0.73
2022-09-12T15:08:30.395Z,0.73
2022-09-12T15:11:33.825Z,0.60
2022-09-12T15:14:36.666Z,0.50
2022-09-12T15:17:39.225Z,0.60
